Time;durP1;ratioP1;P1;durP2;ratioP2;P2;SDS_P1;SDS_P2;PMS_P1;PMS_P2;Temp;Humidity;BMP_temperature;BMP_pressure;BME280_temperature;BME280_humidity;BME280_pressure;Samples;Min_cycle;Max_cycle;Signal;HPM_P1;HPM_P2
2020/12/09 00:01:42;;;;;;;8.73;6.32;;;4.00;96.50;;;;;;5056720;28;20565;-72
2020/12/09 00:04:08;;;;;;;8.50;5.47;;;4.00;96.50;;;;;;5056427;28;20226;-72
2020/12/09 00:06:35;;;;;;;9.40;6.57;;;3.80;96.70;;;;;;5056133;28;20169;-72
2020/12/09 00:09:01;;;;;;;12.00;6.55;;;3.90;96.80;;;;;;5056264;28;20182;-72
2020/12/09 00:11:26;;;;;;;11.13;7.35;;;3.90;96.70;;;;;;5055914;28;20194;-72
2020/12/09 00:13:53;;;;;;;9.30;7.37;;;4.00;96.70;;;;;;5056519;28;20176;-72
2020/12/09 00:16:19;;;;;;;11.32;8.05;;;4.00;96.50;;;;;;5055895;28;20257;-72
2020/12/09 00:18:45;;;;;;;19.30;8.53;;;4.00;96.50;;;;;;5056064;28;20254;-72
2020/12/09 00:21:16;;;;;;;12.57;8.50;;;3.90;96.70;;;;;;5055840;28;20196;-72
2020/12/09 00:23:42;;;;;;;13.27;11.18;;;4.00;96.90;;;;;;5055926;28;20268;-72
2020/12/09 00:26:08;;;;;;;13.40;9.87;;;4.00;96.80;;;;;;5055743;28;20224;-72
2020/12/09 00:28:33;;;;;;;13.30;8.37;;;4.00;96.90;;;;;;5055826;28;20245;-72
2020/12/09 00:30:59;;;;;;;12.37;8.20;;;4.00;96.90;;;;;;5055643;28;20709;-72
2020/12/09 00:33:24;;;;;;;14.67;8.17;;;4.10;96.80;;;;;;5055972;28;20223;-72
2020/12/09 00:35:50;;;;;;;10.83;8.80;;;4.00;96.70;;;;;;5055587;28;20170;-72
2020/12/09 00:38:16;;;;;;;15.63;10.17;;;4.00;96.70;;;;;;5055864;28;20170;-72
2020/12/09 00:40:43;;;;;;;19.25;10.13;;;4.10;96.70;;;;;;5055449;28;20536;-72
2020/12/09 00:43:09;;;;;;;15.82;10.05;;;4.10;96.60;;;;;;5055492;28;20166;-72
2020/12/09 00:45:34;;;;;;;17.55;11.38;;;4.10;96.90;;;;;;5055393;28;20557;-72
2020/12/09 00:48:00;;;;;;;14.17;10.77;;;4.00;96.80;;;;;;5055583;28;20181;-72
2020/12/09 00:50:29;;;;;;;15.33;9.30;;;4.10;96.80;;;;;;5055501;28;20189;-72
2020/12/09 00:52:55;;;;;;;15.02;9.68;;;4.10;96.80;;;;;;5055245;28;20242;-72
2020/12/09 00:55:21;;;;;;;16.60;9.32;;;4.20;96.70;;;;;;5055490;28;20552;-72
2020/12/09 00:57:47;;;;;;;18.48;12.43;;;4.10;96.60;;;;;;5055245;28;20168;-72
2020/12/09 01:00:13;;;;;;;14.00;11.50;;;4.20;96.60;;;;;;5054306;28;20249;-72
2020/12/09 01:02:39;;;;;;;15.43;9.87;;;4.10;96.70;;;;;;5055130;28;20632;-72
2020/12/09 01:05:07;;;;;;;16.23;9.47;;;4.20;96.70;;;;;;5055045;28;20496;-72
2020/12/09 01:07:33;;;;;;;16.52;10.93;;;4.10;96.70;;;;;;5055091;28;20176;-71
2020/12/09 01:09:58;;;;;;;17.47;10.93;;;4.10;96.70;;;;;;5055007;28;20250;-72
2020/12/09 01:12:24;;;;;;;16.57;9.77;;;4.00;96.70;;;;;;5055320;28;20276;-72
2020/12/09 01:14:50;;;;;;;21.40;11.60;;;4.00;96.90;;;;;;5055080;28;20169;-72
2020/12/09 01:17:17;;;;;;;18.77;11.23;;;4.00;97.00;;;;;;5054853;28;20412;-72
2020/12/09 01:19:43;;;;;;;18.83;10.95;;;3.80;97.10;;;;;;5054817;28;20531;-72
2020/12/09 01:22:09;;;;;;;18.50;11.83;;;3.80;97.50;;;;;;5053685;28;20188;-72
2020/12/09 01:24:35;;;;;;;19.90;13.20;;;3.70;97.60;;;;;;5054464;28;20203;-72
2020/12/09 01:27:00;;;;;;;19.67;10.67;;;3.70;97.50;;;;;;5054605;28;20208;-72
2020/12/09 01:29:26;;;;;;;16.37;11.00;;;3.80;97.50;;;;;;5053429;28;20454;-72
2020/12/09 01:31:59;;;;;;;19.73;11.77;;;3.90;97.40;;;;;;5054563;28;20602;-72
2020/12/09 01:34:26;;;;;;;19.85;12.57;;;3.90;97.40;;;;;;5054791;28;20258;-72
2020/12/09 01:36:52;;;;;;;21.95;12.52;;;3.80;97.50;;;;;;5054414;28;20166;-72
2020/12/09 01:39:18;;;;;;;19.60;12.52;;;3.80;97.30;;;;;;5054587;28;20197;-72
2020/12/09 01:41:44;;;;;;;18.80;11.10;;;3.80;97.50;;;;;;5054445;28;20169;-71
2020/12/09 01:44:10;;;;;;;21.10;9.73;;;3.70;97.50;;;;;;5054375;28;20313;-72
2020/12/09 01:46:37;;;;;;;21.73;11.82;;;3.60;97.60;;;;;;5054194;28;20199;-72
2020/12/09 01:49:03;;;;;;;18.23;11.23;;;3.70;97.60;;;;;;5054439;28;20187;-72
2020/12/09 01:51:30;;;;;;;23.90;13.23;;;3.80;97.60;;;;;;5054178;28;20197;-72
2020/12/09 01:53:57;;;;;;;21.38;11.98;;;3.80;97.50;;;;;;5054195;28;20174;-72
2020/12/09 01:56:23;;;;;;;23.85;13.32;;;3.70;97.50;;;;;;5054060;28;20174;-72
2020/12/09 01:58:51;;;;;;;20.97;13.17;;;3.60;97.50;;;;;;5054499;28;20302;-72
2020/12/09 02:01:17;;;;;;;21.63;13.73;;;3.60;97.70;;;;;;5054205;28;20212;-72
2020/12/09 02:03:43;;;;;;;14.30;11.00;;;3.60;97.70;;;;;;5054166;28;20176;-72
2020/12/09 02:06:09;;;;;;;23.95;12.68;;;3.60;97.80;;;;;;5053866;28;20177;-72
2020/12/09 02:08:34;;;;;;;16.40;10.83;;;3.60;97.80;;;;;;5054049;28;20180;-72
2020/12/09 02:11:02;;;;;;;22.00;12.77;;;3.60;97.90;;;;;;5053595;28;20980;-72
2020/12/09 02:13:28;;;;;;;18.25;10.52;;;3.50;97.90;;;;;;5054058;28;20193;-72
2020/12/09 02:15:55;;;;;;;19.40;12.07;;;3.50;98.00;;;;;;5053637;28;20180;-72
2020/12/09 02:18:21;;;;;;;19.88;11.38;;;3.60;97.90;;;;;;5053750;28;20220;-72
2020/12/09 02:20:46;;;;;;;20.00;12.73;;;3.60;97.60;;;;;;5053665;28;20639;-72
2020/12/09 02:23:12;;;;;;;18.63;12.00;;;3.70;97.70;;;;;;5053539;28;20259;-72
2020/12/09 02:25:38;;;;;;;16.98;10.50;;;3.70;97.60;;;;;;5053591;28;20189;-72
2020/12/09 02:28:04;;;;;;;23.47;13.57;;;3.70;97.60;;;;;;5053688;28;20177;-72
2020/12/09 02:30:30;;;;;;;14.00;9.77;;;3.70;97.70;;;;;;5053708;28;20316;-72
2020/12/09 02:32:56;;;;;;;14.27;9.30;;;3.70;97.60;;;;;;5053448;28;20819;-72
2020/12/09 02:35:22;;;;;;;14.70;9.67;;;3.80;97.50;;;;;;5053461;28;20880;-72
2020/12/09 02:37:47;;;;;;;20.00;12.18;;;3.80;97.40;;;;;;5053614;28;20173;-71
2020/12/09 02:40:13;;;;;;;14.77;9.67;;;3.70;97.30;;;;;;5053771;28;20668;-72
2020/12/09 02:42:39;;;;;;;18.67;10.90;;;3.80;97.20;;;;;;5053561;28;20641;-72
2020/12/09 02:45:05;;;;;;;19.73;11.05;;;3.90;97.10;;;;;;5053352;28;20180;-72
2020/12/09 02:47:30;;;;;;;15.30;11.13;;;3.80;96.90;;;;;;5053562;28;20188;-72
2020/12/09 02:49:56;;;;;;;16.50;10.27;;;3.80;97.00;;;;;;5053419;28;20198;-72
2020/12/09 02:52:23;;;;;;;19.57;10.67;;;3.80;97.00;;;;;;5053294;28;20207;-72
2020/12/09 02:54:48;;;;;;;17.27;10.23;;;3.80;96.90;;;;;;5053144;28;20173;-72
2020/12/09 02:57:14;;;;;;;16.87;11.00;;;3.70;97.00;;;;;;5053321;28;20176;-72
2020/12/09 02:59:40;;;;;;;16.03;9.43;;;3.70;97.10;;;;;;5053272;28;20420;-72
2020/12/09 03:02:05;;;;;;;19.90;11.50;;;3.80;97.30;;;;;;5053312;28;20219;-72
2020/12/09 03:04:32;;;;;;;15.27;10.60;;;3.80;97.10;;;;;;5053064;28;20172;-72
2020/12/09 03:06:58;;;;;;;19.00;12.98;;;3.70;96.90;;;;;;5053072;28;20170;-72
2020/12/09 03:09:24;;;;;;;15.03;9.77;;;3.80;97.10;;;;;;5053221;28;20203;-72
2020/12/09 03:11:49;;;;;;;16.70;11.50;;;3.70;97.10;;;;;;5053132;28;20192;-72
2020/12/09 03:14:15;;;;;;;21.10;10.60;;;3.80;97.00;;;;;;5053257;28;20652;-72
2020/12/09 03:16:40;;;;;;;17.73;11.27;;;3.60;97.10;;;;;;5053080;28;20523;-72
2020/12/09 03:19:06;;;;;;;18.53;10.63;;;3.50;97.10;;;;;;5053171;28;20172;-72
2020/12/09 03:21:32;;;;;;;16.13;10.73;;;3.50;97.30;;;;;;5053515;28;20173;-72
2020/12/09 03:23:58;;;;;;;18.23;11.30;;;3.40;97.50;;;;;;5057024;28;20238;-72
2020/12/09 03:26:26;;;;;;;13.75;9.95;;;3.30;97.70;;;;;;5056935;28;20184;-72
2020/12/09 03:28:53;;;;;;;21.73;11.63;;;3.40;97.80;;;;;;5056985;28;20175;-72
2020/12/09 03:31:19;;;;;;;14.60;10.02;;;3.40;97.90;;;;;;5056788;28;20282;-72
2020/12/09 03:33:45;;;;;;;15.45;11.98;;;3.40;97.70;;;;;;5056787;28;20177;-72
2020/12/09 03:36:10;;;;;;;18.97;11.70;;;3.40;97.70;;;;;;5055454;28;20171;-72
2020/12/09 03:38:36;;;;;;;16.90;10.40;;;3.60;97.70;;;;;;5056895;28;20250;-72
2020/12/09 03:41:02;;;;;;;13.53;9.43;;;3.50;97.40;;;;;;5056906;28;20191;-72
2020/12/09 03:43:28;;;;;;;19.30;11.43;;;3.60;97.40;;;;;;5056935;28;20217;-72
2020/12/09 03:45:54;;;;;;;18.20;11.40;;;3.40;97.40;;;;;;5056515;28;20183;-72
2020/12/09 03:48:20;;;;;;;15.93;10.60;;;3.30;97.70;;;;;;5056624;28;20385;-72
2020/12/09 03:50:45;;;;;;;13.70;10.27;;;3.40;97.90;;;;;;5056550;28;20223;-72
2020/12/09 03:53:11;;;;;;;13.33;8.90;;;3.30;98.00;;;;;;5056591;28;20442;-72
2020/12/09 03:55:36;;;;;;;18.03;12.03;;;3.20;98.20;;;;;;5056319;28;20222;-72
2020/12/09 03:58:02;;;;;;;17.73;11.00;;;3.30;98.40;;;;;;5056550;28;20219;-72
2020/12/09 04:00:28;;;;;;;19.37;12.97;;;3.30;98.60;;;;;;5056453;28;20730;-72
2020/12/09 04:02:54;;;;;;;21.25;12.93;;;3.20;98.60;;;;;;5056300;28;20198;-72
2020/12/09 04:05:20;;;;;;;22.70;11.35;;;3.20;98.70;;;;;;5056144;28;20685;-72
2020/12/09 04:07:46;;;;;;;20.60;11.73;;;3.20;98.80;;;;;;5056276;28;20173;-72
2020/12/09 04:10:12;;;;;;;16.00;9.93;;;3.20;98.90;;;;;;5056247;28;20518;-71
2020/12/09 04:12:37;;;;;;;17.47;9.17;;;3.30;98.90;;;;;;5056262;28;20196;-72
2020/12/09 04:15:03;;;;;;;17.40;10.60;;;3.30;98.80;;;;;;5056081;28;20170;-72
2020/12/09 04:17:29;;;;;;;17.15;10.60;;;3.40;98.80;;;;;;5056584;28;20193;-72
2020/12/09 04:19:55;;;;;;;18.90;11.00;;;3.30;98.80;;;;;;5056122;28;20192;-72
2020/12/09 04:22:20;;;;;;;16.77;10.17;;;3.40;98.80;;;;;;5056039;28;20203;-72
2020/12/09 04:24:46;;;;;;;15.03;9.47;;;3.40;98.80;;;;;;5055630;28;20709;-72
2020/12/09 04:27:11;;;;;;;18.00;10.43;;;3.50;98.80;;;;;;5056013;28;20169;-72
2020/12/09 04:29:37;;;;;;;11.53;9.00;;;3.50;98.50;;;;;;5055902;28;20280;-72
2020/12/09 04:32:04;;;;;;;12.47;8.70;;;3.40;98.70;;;;;;5055701;28;20194;-72
2020/12/09 04:34:30;;;;;;;15.88;9.27;;;3.40;98.80;;;;;;5054624;28;20170;-72
2020/12/09 04:36:55;;;;;;;17.00;10.60;;;3.60;98.60;;;;;;5055609;28;20205;-72
2020/12/09 04:39:22;;;;;;;19.70;10.70;;;3.50;98.50;;;;;;5055602;28;20217;-71
2020/12/09 04:41:48;;;;;;;18.67;9.50;;;3.60;98.50;;;;;;5055637;28;20658;-72
2020/12/09 04:44:14;;;;;;;12.55;8.25;;;3.70;98.40;;;;;;5055807;28;20182;-72
2020/12/09 04:46:45;;;;;;;17.10;7.80;;;3.90;98.00;;;;;;5055331;28;20171;-72
2020/12/09 04:49:23;;;;;;;12.85;9.55;;;3.90;97.60;;;;;;5055579;28;20158;-72
2020/12/09 04:51:48;;;;;;;13.07;8.98;;;3.70;97.60;;;;;;5055569;28;20268;-72
2020/12/09 04:54:15;;;;;;;14.17;8.37;;;3.60;97.80;;;;;;5055632;28;20297;-71
2020/12/09 04:56:54;;;;;;;10.93;7.35;;;3.50;98.00;;;;;;5053921;28;20172;-72
2020/12/09 04:59:24;;;;;;;10.88;7.05;;;3.30;98.40;;;;;;5055412;28;20534;-72
2020/12/09 05:02:02;;;;;;;19.50;13.20;;;3.10;98.90;;;;;;5055305;28;20532;-72
2020/12/09 05:04:31;;;;;;;19.92;10.63;;;3.40;99.00;;;;;;5055386;28;20544;-72
2020/12/09 05:06:59;;;;;;;15.13;9.48;;;3.50;98.80;;;;;;5055591;28;20515;-72
2020/12/09 05:09:27;;;;;;;10.45;8.55;;;3.60;98.50;;;;;;5055114;28;20280;-72
2020/12/09 05:12:01;;;;;;;12.23;8.90;;;3.70;98.30;;;;;;5055231;28;20309;-72
2020/12/09 05:14:29;;;;;;;14.52;8.52;;;3.80;98.00;;;;;;5055064;28;20166;-72
2020/12/09 05:16:58;;;;;;;13.02;7.72;;;3.80;97.70;;;;;;5054808;28;20260;-72
2020/12/09 05:19:25;;;;;;;13.48;6.90;;;3.80;97.50;;;;;;5054943;28;20193;-72
2020/12/09 05:21:51;;;;;;;12.63;8.35;;;3.70;97.40;;;;;;5054843;28;20229;-72
2020/12/09 05:24:20;;;;;;;14.20;8.40;;;3.70;97.50;;;;;;5054638;28;20533;-72
2020/12/09 05:26:47;;;;;;;10.38;6.57;;;3.70;97.60;;;;;;5054649;28;20576;-72
2020/12/09 05:29:19;;;;;;;11.02;7.43;;;3.70;97.70;;;;;;5054737;28;20198;-72
2020/12/09 05:31:47;;;;;;;10.20;7.03;;;3.60;97.70;;;;;;5054652;28;20198;-72
2020/12/09 05:34:33;;;;;;;9.50;7.22;;;3.70;97.80;;;;;;5054796;28;20166;-72
2020/12/09 05:37:02;;;;;;;11.40;7.82;;;3.80;97.80;;;;;;5054369;28;20184;-72
2020/12/09 05:39:28;;;;;;;8.20;6.40;;;3.70;97.60;;;;;;5054310;28;20279;-72
2020/12/09 05:41:54;;;;;;;11.73;6.80;;;3.80;97.60;;;;;;5054602;28;20200;-72
2020/12/09 05:44:22;;;;;;;10.60;7.68;;;3.80;97.50;;;;;;5054187;28;20397;-72
2020/12/09 05:47:02;;;;;;;11.80;6.28;;;3.80;97.50;;;;;;5054105;28;20191;-72
2020/12/09 05:49:30;;;;;;;7.22;4.63;;;3.80;97.40;;;;;;5054261;28;20192;-72
2020/12/09 05:52:03;;;;;;;8.25;6.05;;;3.70;97.30;;;;;;5054261;28;20585;-72
2020/12/09 05:54:29;;;;;;;11.60;7.18;;;3.80;97.40;;;;;;5053114;28;20192;-72
2020/12/09 05:56:56;;;;;;;7.17;5.23;;;3.80;97.50;;;;;;5053984;28;20181;-72
2020/12/09 05:59:39;;;;;;;9.30;6.63;;;3.70;97.40;;;;;;5054217;28;20235;-72
2020/12/09 06:02:09;;;;;;;8.32;5.85;;;3.60;97.70;;;;;;5054327;28;20260;-72
2020/12/09 06:04:45;;;;;;;7.20;5.05;;;3.60;97.80;;;;;;5054008;28;20166;-72
2020/12/09 06:07:11;;;;;;;8.25;5.45;;;3.70;97.70;;;;;;5054179;28;20177;-72
2020/12/09 06:09:38;;;;;;;6.60;5.40;;;3.70;97.60;;;;;;5054015;28;20220;-72
2020/12/09 06:12:05;;;;;;;6.10;4.32;;;3.60;97.60;;;;;;5053822;28;20205;-72
2020/12/09 06:14:31;;;;;;;5.07;4.20;;;3.70;97.60;;;;;;5053935;28;20178;-72
2020/12/09 06:16:57;;;;;;;5.50;3.85;;;3.70;97.50;;;;;;5053632;28;20230;-72
2020/12/09 06:19:23;;;;;;;5.17;4.13;;;3.60;97.50;;;;;;5053838;28;20185;-72
2020/12/09 06:21:56;;;;;;;6.32;5.35;;;3.70;97.60;;;;;;5053929;28;20178;-72
2020/12/09 06:24:21;;;;;;;4.28;3.60;;;3.70;97.60;;;;;;5053606;28;20189;-72
2020/12/09 06:26:49;;;;;;;3.93;3.53;;;3.70;98.00;;;;;;5053544;28;20178;-72
2020/12/09 06:29:21;;;;;;;4.88;4.38;;;3.60;97.60;;;;;;5053594;28;20271;-72
2020/12/09 06:32:01;;;;;;;4.97;4.07;;;3.60;97.70;;;;;;5053642;28;20715;-72
2020/12/09 06:34:27;;;;;;;5.28;4.68;;;3.70;97.60;;;;;;5053821;28;20179;-72
2020/12/09 06:37:13;;;;;;;7.53;6.10;;;3.70;97.60;;;;;;5053486;28;20176;-72
2020/12/09 06:39:39;;;;;;;7.10;5.07;;;3.70;97.50;;;;;;5053433;28;20273;-72
2020/12/09 06:42:07;;;;;;;5.05;3.83;;;3.70;97.40;;;;;;5053390;28;20174;-72
2020/12/09 06:44:46;;;;;;;5.15;4.03;;;3.70;97.40;;;;;;5053581;28;20249;-72
2020/12/09 06:47:12;;;;;;;7.07;4.65;;;3.80;97.40;;;;;;5053365;28;20210;-72
2020/12/09 06:49:40;;;;;;;6.13;5.43;;;3.70;97.40;;;;;;5053233;28;20194;-72
2020/12/09 06:52:09;;;;;;;7.85;4.40;;;3.70;97.40;;;;;;5053314;28;20245;-72
2020/12/09 06:54:47;;;;;;;8.25;3.53;;;3.50;97.50;;;;;;5053420;28;20293;-72
2020/12/09 06:57:35;;;;;;;5.05;3.72;;;3.50;97.60;;;;;;5052738;28;20202;-72
2020/12/09 07:00:09;;;;;;;4.35;3.67;;;3.40;97.60;;;;;;5053267;28;20187;-72
2020/12/09 07:02:35;;;;;;;4.45;3.20;;;3.20;97.70;;;;;;5053609;28;20175;-72
2020/12/09 07:05:00;;;;;;;3.70;3.30;;;3.10;98.10;;;;;;5053068;28;20548;-72
2020/12/09 07:07:39;;;;;;;5.33;2.50;;;3.10;98.40;;;;;;5053333;28;20178;-72
2020/12/09 07:10:18;;;;;;;5.03;4.57;;;3.20;98.60;;;;;;5053204;28;20195;-72
2020/12/09 07:12:49;;;;;;;3.30;3.05;;;3.30;98.50;;;;;;5053308;28;20202;-72
2020/12/09 07:15:15;;;;;;;3.70;2.97;;;3.30;98.60;;;;;;5053163;28;20179;-72
2020/12/09 07:17:41;;;;;;;5.40;3.33;;;3.20;98.40;;;;;;5053328;28;20175;-72
2020/12/09 07:20:08;;;;;;;18.23;5.10;;;3.40;98.30;;;;;;5053144;28;20556;-72
2020/12/09 07:22:34;;;;;;;5.15;3.85;;;3.50;98.00;;;;;;5053227;28;20186;-72
2020/12/09 07:25:00;;;;;;;6.45;4.05;;;3.60;97.90;;;;;;5052925;28;20265;-72
2020/12/09 07:27:28;;;;;;;4.67;3.37;;;3.70;97.70;;;;;;5053487;28;20173;-72
2020/12/09 07:29:57;;;;;;;4.90;3.88;;;3.60;97.50;;;;;;5053011;28;20448;-72
2020/12/09 07:32:23;;;;;;;3.75;3.45;;;3.60;97.60;;;;;;5053308;28;20202;-72
2020/12/09 07:34:56;;;;;;;2.93;2.63;;;3.60;97.60;;;;;;5053011;28;20249;-72
2020/12/09 07:37:31;;;;;;;3.35;3.15;;;3.50;97.60;;;;;;5053108;28;20230;-72
2020/12/09 07:40:00;;;;;;;3.50;3.20;;;3.50;97.60;;;;;;5053212;28;20193;-72
2020/12/09 07:42:26;;;;;;;3.90;3.00;;;3.40;97.70;;;;;;5052954;28;20168;-72
2020/12/09 07:44:53;;;;;;;4.80;4.10;;;3.40;97.80;;;;;;5052823;28;20259;-72
2020/12/09 07:47:27;;;;;;;3.03;2.72;;;3.50;97.80;;;;;;5052813;28;20179;-72
2020/12/09 07:49:55;;;;;;;4.47;4.05;;;3.50;97.80;;;;;;5052812;28;20539;-72
2020/12/09 07:52:26;;;;;;;3.58;3.28;;;3.70;97.70;;;;;;5052943;28;20209;-72
2020/12/09 07:54:54;;;;;;;4.07;2.97;;;3.70;97.40;;;;;;5052789;28;20195;-72
2020/12/09 07:57:22;;;;;;;3.53;2.83;;;3.90;97.40;;;;;;5052752;28;20199;-72
2020/12/09 07:59:48;;;;;;;5.95;3.70;;;4.00;97.20;;;;;;5052843;28;20268;-72
2020/12/09 08:02:18;;;;;;;3.57;3.27;;;4.00;97.00;;;;;;5052677;28;20577;-72
2020/12/09 08:04:44;;;;;;;4.38;4.07;;;4.00;96.80;;;;;;5052496;28;20202;-72
2020/12/09 08:07:20;;;;;;;2.40;2.20;;;4.10;96.60;;;;;;5052686;28;20178;-72
2020/12/09 08:10:08;;;;;;;2.38;2.20;;;4.00;96.60;;;;;;5056169;28;20197;-72
2020/12/09 08:12:38;;;;;;;3.88;3.22;;;3.80;96.70;;;;;;5056178;28;20277;-72
2020/12/09 08:15:05;;;;;;;3.05;2.72;;;3.80;97.00;;;;;;5055868;28;20170;-72
2020/12/09 08:17:31;;;;;;;2.85;2.40;;;3.90;97.10;;;;;;5054842;28;20174;-72
2020/12/09 08:20:07;;;;;;;2.67;2.47;;;3.80;96.90;;;;;;5056085;28;20665;-72
2020/12/09 08:22:56;;;;;;;2.83;2.55;;;3.80;96.70;;;;;;5056187;28;20180;-72
2020/12/09 08:25:23;;;;;;;3.13;2.78;;;3.80;97.00;;;;;;5055968;28;20181;-72
2020/12/09 08:27:49;;;;;;;3.75;3.22;;;3.90;96.90;;;;;;5056198;28;20192;-72
2020/12/09 08:30:23;;;;;;;3.60;3.33;;;4.00;96.90;;;;;;5054561;28;20198;-72
2020/12/09 08:33:11;;;;;;;3.85;3.53;;;4.10;96.80;;;;;;5055863;28;20447;-72
2020/12/09 08:35:43;;;;;;;5.60;2.50;;;4.10;96.60;;;;;;5055707;28;20201;-72
2020/12/09 08:38:09;;;;;;;8.52;3.28;;;4.30;96.50;;;;;;5055707;28;20181;-72
2020/12/09 08:40:35;;;;;;;17.98;4.93;;;4.30;96.50;;;;;;5055621;28;20215;-72
2020/12/09 08:43:01;;;;;;;16.80;3.67;;;4.40;96.10;;;;;;5055749;28;20683;-71
2020/12/09 08:45:28;;;;;;;3.40;2.63;;;4.60;96.00;;;;;;5055683;28;20249;-72
2020/12/09 08:47:54;;;;;;;3.78;2.75;;;4.60;95.70;;;;;;5055782;28;20170;-72
2020/12/09 08:50:20;;;;;;;5.85;2.58;;;4.70;95.50;;;;;;5055372;28;20201;-72
2020/12/09 08:52:46;;;;;;;2.67;2.15;;;4.80;95.30;;;;;;5055396;28;20241;-72
2020/12/09 08:55:12;;;;;;;3.40;2.70;;;4.90;95.20;;;;;;5055219;28;20220;-71
2020/12/09 08:57:37;;;;;;;3.63;3.03;;;5.00;95.00;;;;;;5055473;28;20922;-72
2020/12/09 09:00:07;;;;;;;2.60;2.40;;;5.10;94.60;;;;;;5055391;28;20558;-72
2020/12/09 09:02:33;;;;;;;2.10;2.00;;;5.10;94.70;;;;;;5055374;28;20170;-72
2020/12/09 09:04:59;;;;;;;3.60;2.07;;;5.10;94.40;;;;;;5055254;28;20701;-72
2020/12/09 09:07:25;;;;;;;4.70;2.67;;;5.10;94.30;;;;;;5055226;28;20409;-72
2020/12/09 09:09:51;;;;;;;2.10;2.00;;;5.30;94.30;;;;;;5053841;28;20967;-72
2020/12/09 09:12:16;;;;;;;2.83;2.63;;;5.40;94.20;;;;;;5055113;28;20198;-72
2020/12/09 09:14:43;;;;;;;2.10;1.93;;;5.50;94.00;;;;;;5054859;28;20173;-72
2020/12/09 09:17:09;;;;;;;2.70;2.03;;;5.60;93.80;;;;;;5055091;28;20252;-72
2020/12/09 09:19:34;;;;;;;2.10;2.00;;;5.40;93.70;;;;;;5054122;28;20226;-72
2020/12/09 09:22:00;;;;;;;1.90;1.80;;;5.40;94.00;;;;;;5055153;28;20171;-72
2020/12/09 09:24:26;;;;;;;2.13;1.87;;;5.40;93.90;;;;;;5054703;28;20190;-72
2020/12/09 09:26:51;;;;;;;1.83;1.57;;;5.30;93.20;;;;;;5054789;28;20173;-72
2020/12/09 09:29:17;;;;;;;1.53;1.43;;;5.40;93.60;;;;;;5054817;28;20185;-72
2020/12/09 09:31:43;;;;;;;1.47;1.37;;;5.40;93.80;;;;;;5054789;28;20277;-72
2020/12/09 09:34:10;;;;;;;1.13;1.10;;;5.50;94.00;;;;;;5054736;28;20859;-72
2020/12/09 09:36:36;;;;;;;2.30;2.10;;;5.20;93.30;;;;;;5054277;28;20175;-72
2020/12/09 09:39:02;;;;;;;2.15;1.20;;;5.10;94.00;;;;;;5053317;28;20961;-72
2020/12/09 09:41:28;;;;;;;1.50;1.40;;;5.10;94.00;;;;;;5054564;28;20178;-72
2020/12/09 09:43:53;;;;;;;2.10;2.00;;;5.20;94.10;;;;;;5054514;28;20274;-72
2020/12/09 09:46:23;;;;;;;1.97;1.30;;;5.30;94.10;;;;;;5054301;28;20651;-72
2020/12/09 09:48:49;;;;;;;10.02;2.95;;;5.30;94.00;;;;;;5054653;28;20617;-72
2020/12/09 09:51:14;;;;;;;2.30;2.08;;;5.40;94.10;;;;;;5054167;28;20237;-72
2020/12/09 09:53:40;;;;;;;3.20;2.53;;;5.50;93.70;;;;;;5054485;28;20216;-72
2020/12/09 09:56:06;;;;;;;4.20;3.43;;;5.70;93.60;;;;;;5054197;28;20163;-72
2020/12/09 09:58:32;;;;;;;2.53;2.25;;;5.80;93.30;;;;;;5054375;28;20174;-72
2020/12/09 10:00:58;;;;;;;2.70;2.00;;;5.60;92.80;;;;;;5054089;28;20281;-72
2020/12/09 10:03:23;;;;;;;3.13;2.17;;;4.80;93.20;;;;;;5054365;28;20170;-72
2020/12/09 10:05:51;;;;;;;2.63;2.40;;;4.90;94.00;;;;;;5054126;28;20178;-72
2020/12/09 10:08:17;;;;;;;2.00;1.80;;;4.60;94.30;;;;;;5054239;28;20166;-72
2020/12/09 10:10:43;;;;;;;2.77;2.00;;;4.80;94.90;;;;;;5054004;28;20190;-72
2020/12/09 10:13:08;;;;;;;2.37;2.17;;;4.90;94.70;;;;;;5053853;28;20460;-72
2020/12/09 10:15:34;;;;;;;2.10;1.90;;;5.00;94.10;;;;;;5053761;28;20175;-72
2020/12/09 10:17:59;;;;;;;2.80;2.60;;;5.00;94.20;;;;;;5053830;28;20173;-72
2020/12/09 10:20:25;;;;;;;2.67;2.47;;;5.20;94.00;;;;;;5053807;28;20186;-72
2020/12/09 10:22:51;;;;;;;2.50;1.60;;;5.00;94.00;;;;;;5053676;28;20253;-72
2020/12/09 10:25:16;;;;;;;1.90;1.80;;;5.20;93.70;;;;;;5053675;28;20174;-72
2020/12/09 10:27:42;;;;;;;1.93;1.83;;;5.20;93.60;;;;;;5053869;28;20220;-72
2020/12/09 10:30:08;;;;;;;2.80;1.83;;;5.20;93.80;;;;;;5053627;28;20201;-72
2020/12/09 10:32:34;;;;;;;1.98;1.88;;;5.20;93.30;;;;;;5053522;28;20202;-72
2020/12/09 10:35:00;;;;;;;1.40;1.33;;;5.30;93.60;;;;;;5053625;28;20190;-72
2020/12/09 10:37:26;;;;;;;1.73;1.63;;;5.30;93.10;;;;;;5053815;28;20169;-72
2020/12/09 10:39:52;;;;;;;1.60;1.50;;;5.40;93.40;;;;;;5053694;28;20280;-72
2020/12/09 10:42:20;;;;;;;1.83;1.73;;;5.20;93.10;;;;;;5053468;28;20433;-72
2020/12/09 10:44:46;;;;;;;2.78;2.58;;;5.20;93.40;;;;;;5053501;28;20166;-72
2020/12/09 10:47:12;;;;;;;1.80;1.70;;;5.10;93.50;;;;;;5053585;28;20196;-72
2020/12/09 10:49:43;;;;;;;3.60;2.17;;;5.10;93.80;;;;;;5053378;28;20190;-72
2020/12/09 10:52:09;;;;;;;1.65;1.55;;;5.10;93.70;;;;;;5053819;28;20696;-72
2020/12/09 10:54:35;;;;;;;2.30;2.10;;;5.30;93.70;;;;;;5053448;28;20170;-72
2020/12/09 10:57:01;;;;;;;2.47;2.27;;;5.30;93.60;;;;;;5053394;28;20439;-72
2020/12/09 10:59:27;;;;;;;3.05;2.42;;;5.40;93.30;;;;;;5053409;28;20721;-72
2020/12/09 11:01:54;;;;;;;2.77;2.50;;;5.50;93.50;;;;;;5053271;28;20178;-72
2020/12/09 11:04:20;;;;;;;1.98;1.88;;;5.70;93.50;;;;;;5053283;28;20173;-72
2020/12/09 11:06:46;;;;;;;2.88;2.65;;;5.70;93.10;;;;;;5053195;28;20178;-72
2020/12/09 11:09:12;;;;;;;2.60;1.60;;;5.70;92.80;;;;;;5052004;28;20180;-72
2020/12/09 11:11:45;;;;;;;2.23;2.03;;;5.70;92.20;;;;;;5053196;28;20193;-72
2020/12/09 11:14:11;;;;;;;2.30;2.03;;;5.50;92.80;;;;;;5053481;28;20212;-72
2020/12/09 11:16:36;;;;;;;2.63;2.43;;;5.10;92.80;;;;;;5052975;28;20182;-72
2020/12/09 11:19:02;;;;;;;3.03;2.57;;;5.10;93.20;;;;;;5053021;28;20401;-72
2020/12/09 11:21:28;;;;;;;1.67;1.58;;;5.30;93.30;;;;;;5053084;28;20174;-75
2020/12/09 11:23:54;;;;;;;2.67;2.37;;;5.40;93.30;;;;;;5052905;28;20194;-72
2020/12/09 11:26:21;;;;;;;2.67;1.97;;;5.50;93.00;;;;;;5052885;28;20174;-72
2020/12/09 11:28:47;;;;;;;1.45;1.35;;;5.70;93.00;;;;;;5052989;28;20218;-72
2020/12/09 11:31:13;;;;;;;2.15;1.83;;;5.60;92.70;;;;;;5052862;28;20198;-72
2020/12/09 11:33:38;;;;;;;2.17;2.07;;;5.80;92.80;;;;;;5052936;28;20175;-72
2020/12/09 11:36:05;;;;;;;1.60;1.50;;;5.70;92.10;;;;;;5052953;28;20173;-72
2020/12/09 11:38:30;;;;;;;5.40;3.17;;;5.40;92.00;;;;;;5053076;28;20535;-72
2020/12/09 11:40:56;;;;;;;3.33;1.60;;;5.30;92.80;;;;;;5052925;28;20186;-72
2020/12/09 11:43:24;;;;;;;2.78;2.47;;;5.20;93.00;;;;;;5054346;28;20630;-72
2020/12/09 11:45:50;;;;;;;2.17;2.00;;;4.90;93.70;;;;;;5056748;28;20174;-72
2020/12/09 11:48:16;;;;;;;2.50;2.00;;;4.70;93.70;;;;;;5056628;28;20170;-72
2020/12/09 11:50:42;;;;;;;1.43;1.33;;;4.70;93.60;;;;;;5056594;28;20186;-72
2020/12/09 11:53:08;;;;;;;1.93;1.37;;;4.90;93.90;;;;;;5056594;28;20451;-71
2020/12/09 11:55:35;;;;;;;2.33;1.75;;;5.20;93.60;;;;;;5056567;28;20512;-72
2020/12/09 11:58:01;;;;;;;4.47;1.60;;;5.40;93.20;;;;;;5056931;28;20562;-72
2020/12/09 12:00:28;;;;;;;5.57;2.45;;;5.40;93.00;;;;;;5056578;28;20186;-72
2020/12/09 12:02:54;;;;;;;2.17;1.98;;;5.40;92.80;;;;;;5056495;28;20170;-72
2020/12/09 12:05:22;;;;;;;2.37;2.17;;;5.50;92.80;;;;;;5056254;28;20193;-72
2020/12/09 12:07:48;;;;;;;4.57;3.20;;;5.30;92.50;;;;;;5056932;28;20169;-72
2020/12/09 12:10:14;;;;;;;5.23;2.97;;;5.20;92.60;;;;;;5056270;28;20537;-72
2020/12/09 12:12:40;;;;;;;4.67;3.63;;;5.10;92.60;;;;;;5056076;28;20456;-72
2020/12/09 12:15:05;;;;;;;4.97;3.30;;;5.10;93.00;;;;;;5056046;28;20200;-72
2020/12/09 12:17:31;;;;;;;3.50;2.70;;;5.00;93.10;;;;;;5056074;28;20197;-72
2020/12/09 12:19:56;;;;;;;3.83;2.90;;;5.00;93.30;;;;;;5056187;28;20197;-72
2020/12/09 12:22:22;;;;;;;4.53;3.07;;;4.90;93.30;;;;;;5056034;28;20531;-72
2020/12/09 12:24:48;;;;;;;3.70;3.40;;;4.80;93.80;;;;;;5055884;28;20190;-72
2020/12/09 12:27:13;;;;;;;12.60;11.30;;;4.60;94.00;;;;;;5055966;28;20176;-72
2020/12/09 12:29:39;;;;;;;8.13;5.60;;;4.50;94.10;;;;;;5055835;28;20311;-72
2020/12/09 12:32:04;;;;;;;3.90;3.50;;;4.60;94.10;;;;;;5054610;28;20290;-71
2020/12/09 12:34:30;;;;;;;4.23;3.37;;;4.60;94.20;;;;;;5055973;28;20166;-72
2020/12/09 12:36:57;;;;;;;5.60;5.00;;;4.50;94.20;;;;;;5055788;28;20632;-72
2020/12/09 12:39:23;;;;;;;5.93;4.35;;;4.20;94.60;;;;;;5055840;28;20195;-72
2020/12/09 12:41:48;;;;;;;6.70;5.33;;;4.10;94.70;;;;;;5056124;28;20570;-72
2020/12/09 12:44:14;;;;;;;8.80;6.70;;;3.90;94.90;;;;;;5055675;28;20201;-72
2020/12/09 12:46:40;;;;;;;7.53;4.90;;;3.80;95.20;;;;;;5055509;28;20177;-72
2020/12/09 12:49:05;;;;;;;4.70;3.40;;;3.80;95.40;;;;;;5055626;28;20345;-72
2020/12/09 12:51:31;;;;;;;9.03;6.50;;;3.80;95.60;;;;;;5055403;28;20194;-72